Lake City, Washington
Current Conditions -  °F | °C
As of 11:53 PM on Saturday 25 Oct 2014 (Local Time) from KBFI Reporting Station
Clear Clear  
Wind Chill: 55°   Ceiling: Unl
Heat Index: 55°   Visibility: 10mi
Dew Point: 44°   Wind: 16mph
Humidity: 67%   Direction: 200°SSW
Pressure: 29.74"   Gusts: 28mph
Location:  47.7161°N, 122.3°W
Report Text: KBFI 260653Z 20014G24KT 10SM CLR 13/07 A2974 RMK AO2 PK WND 19028/0555 SLP070 T01280067
Loading
Personal Weather Stations






























Interactive Weather Map
Tropical Storm Tracking
New forecast layout! Learn more

10-Day Weather Forecast

Advertisements
Track Severe Weather on mobile